createdAt,value
2019-02-24T00:01:38.658Z,-1.56
2019-02-24T00:04:10.013Z,-1.56
2019-02-24T00:06:42.329Z,-1.57
2019-02-24T00:09:14.856Z,-1.56
2019-02-24T00:11:46.538Z,-1.60
2019-02-24T00:14:17.879Z,-1.60
2019-02-24T00:16:49.158Z,-1.58
2019-02-24T00:19:20.475Z,-1.59
2019-02-24T00:21:52.431Z,-1.56
2019-02-24T00:24:24.475Z,-1.58
2019-02-24T00:26:55.827Z,-1.65
2019-02-24T00:29:27.937Z,-1.65
2019-02-24T00:32:00.666Z,-1.63
2019-02-24T00:34:32.345Z,-1.66
2019-02-24T00:37:03.920Z,-1.65
2019-02-24T00:39:35.492Z,-1.69
2019-02-24T00:42:07.266Z,-1.70
2019-02-24T00:44:39.542Z,-1.75
2019-02-24T00:47:11.137Z,-1.74
2019-02-24T00:49:42.821Z,-1.74
2019-02-24T00:52:14.461Z,-1.74
2019-02-24T00:54:45.734Z,-1.74
2019-02-24T00:57:18.496Z,-1.73
2019-02-24T00:59:50.226Z,-1.79
2019-02-24T01:02:21.896Z,-1.83
2019-02-24T01:04:54.363Z,-1.88
2019-02-24T01:07:25.791Z,-1.88
2019-02-24T01:09:57.075Z,-1.80
2019-02-24T01:12:28.620Z,-1.82
2019-02-24T01:15:00.021Z,-1.83
2019-02-24T01:17:32.916Z,-1.85
2019-02-24T01:20:05.001Z,-1.86
2019-02-24T01:22:36.673Z,-1.89
2019-02-24T01:25:08.184Z,-1.86
2019-02-24T01:27:39.520Z,-1.86
2019-02-24T01:30:11.738Z,-1.88
2019-02-24T01:32:43.021Z,-1.89
2019-02-24T01:35:14.365Z,-1.89
2019-02-24T01:37:45.706Z,-1.90
2019-02-24T01:40:17.432Z,-1.90
2019-02-24T01:42:49.663Z,-1.89
2019-02-24T01:45:20.970Z,-1.89
2019-02-24T01:47:52.915Z,-1.94
2019-02-24T01:50:24.219Z,-1.95
2019-02-24T01:52:55.546Z,-1.93
2019-02-24T01:55:27.624Z,-1.98
2019-02-24T01:57:59.350Z,-2.01
2019-02-24T02:00:31.344Z,-2.03
2019-02-24T02:03:03.235Z,-2.05
2019-02-24T02:05:34.547Z,-2.04
2019-02-24T02:08:06.716Z,-2.07
2019-02-24T02:10:38.030Z,-2.12
2019-02-24T02:13:10.013Z,-2.15
2019-02-24T02:15:42.023Z,-2.14
2019-02-24T02:18:13.324Z,-2.14
2019-02-24T02:20:44.961Z,-2.21
2019-02-24T02:23:19.934Z,-2.28
2019-02-24T02:25:51.536Z,-2.38
2019-02-24T02:28:23.375Z,-2.42
2019-02-24T02:30:55.013Z,-2.49
2019-02-24T02:33:26.652Z,-2.52
2019-02-24T02:36:04.408Z,-2.46
2019-02-24T02:38:36.269Z,-2.38
2019-02-24T02:41:08.314Z,-2.35
2019-02-24T02:43:40.227Z,-2.38
2019-02-24T02:46:13.447Z,-2.38
2019-02-24T02:48:45.345Z,-2.41
2019-02-24T02:51:16.846Z,-2.39
2019-02-24T02:53:48.773Z,-2.38
2019-02-24T02:56:20.809Z,-2.43
2019-02-24T02:58:54.620Z,-2.42
2019-02-24T03:01:26.566Z,-2.43
2019-02-24T03:03:58.480Z,-2.41
2019-02-24T03:06:54.944Z,-2.44
2019-02-24T03:09:27.261Z,-2.46
2019-02-24T03:11:59.161Z,-2.52
2019-02-24T03:14:31.197Z,-2.61
2019-02-24T03:17:02.508Z,-2.57
2019-02-24T03:19:33.814Z,-2.53
2019-02-24T03:22:05.265Z,-2.55
2019-02-24T03:24:38.747Z,-2.59
2019-02-24T03:27:10.338Z,-2.67
2019-02-24T03:29:41.675Z,-2.67
2019-02-24T03:32:12.996Z,-2.70
2019-02-24T03:34:44.267Z,-2.56
2019-02-24T03:37:15.993Z,-2.68
2019-02-24T03:39:47.682Z,-2.67
2019-02-24T03:42:19.039Z,-2.66
2019-02-24T03:44:51.133Z,-2.65
2019-02-24T03:47:22.523Z,-2.67
2019-02-24T03:49:54.129Z,-2.69
2019-02-24T03:52:26.077Z,-2.70
2019-02-24T03:54:57.676Z,-2.63
2019-02-24T03:57:28.989Z,-2.71
2019-02-24T04:00:03.431Z,-2.74
2019-02-24T04:02:34.735Z,-2.74
2019-02-24T04:05:06.336Z,-2.74
2019-02-24T04:07:38.109Z,-2.76
2019-02-24T04:10:09.853Z,-2.82
2019-02-24T04:12:44.647Z,-2.74
2019-02-24T04:15:16.484Z,-2.81
2019-02-24T04:17:47.790Z,-2.77
2019-02-24T04:20:19.768Z,-2.80
2019-02-24T04:22:51.103Z,-2.82
2019-02-24T04:25:22.456Z,-2.81
2019-02-24T04:27:54.577Z,-2.82
2019-02-24T04:30:26.011Z,-2.82
2019-02-24T04:33:00.623Z,-2.84
2019-02-24T04:35:31.896Z,-2.84
2019-02-24T04:38:03.702Z,-2.82
2019-02-24T04:40:34.992Z,-2.88
2019-02-24T04:43:06.666Z,-2.92
2019-02-24T04:45:40.242Z,-2.89
2019-02-24T04:48:11.967Z,-2.89
2019-02-24T04:50:43.595Z,-2.94
2019-02-24T04:53:16.795Z,-2.95
2019-02-24T04:55:48.693Z,-2.94
2019-02-24T04:58:20.368Z,-2.95
2019-02-24T05:00:52.588Z,-2.95
2019-02-24T05:03:24.774Z,-2.94
2019-02-24T05:05:56.397Z,-2.96
2019-02-24T05:08:28.424Z,-2.95
2019-02-24T05:11:00.646Z,-2.90
2019-02-24T05:13:32.647Z,-2.96
2019-02-24T05:16:03.935Z,-3.03
2019-02-24T05:18:36.795Z,-2.97
2019-02-24T05:21:10.003Z,-2.97
2019-02-24T05:23:42.968Z,-3.03
2019-02-24T05:26:15.082Z,-3.03
2019-02-24T05:28:46.772Z,-3.05
2019-02-24T05:31:18.755Z,-3.03
2019-02-24T05:33:50.040Z,-3.05
2019-02-24T05:36:21.416Z,-3.01
2019-02-24T05:38:53.238Z,-2.97
2019-02-24T05:41:25.682Z,-2.99
2019-02-24T05:43:57.625Z,-3.04
2019-02-24T05:46:29.245Z,-3.07
2019-02-24T05:49:01.194Z,-3.07
2019-02-24T05:51:36.055Z,-3.02
2019-02-24T05:54:08.632Z,-3.06
2019-02-24T05:56:39.953Z,-3.02
2019-02-24T05:59:11.298Z,-3.06
2019-02-24T06:01:43.435Z,-3.02
2019-02-24T06:04:14.769Z,-3.07
2019-02-24T06:06:46.353Z,-3.08
2019-02-24T06:09:17.758Z,-3.08
2019-02-24T06:11:49.329Z,-3.07
2019-02-24T06:14:20.981Z,-3.21
2019-02-24T06:16:53.093Z,-3.18
2019-02-24T06:19:25.587Z,-3.14
2019-02-24T06:21:57.033Z,-3.16
2019-02-24T06:24:28.360Z,-3.14
2019-02-24T06:27:01.177Z,-3.16
2019-02-24T06:29:32.965Z,-3.15
2019-02-24T06:32:04.666Z,-3.15
2019-02-24T06:34:39.410Z,-3.17
2019-02-24T06:37:10.732Z,-3.10
2019-02-24T06:39:42.399Z,-3.13
2019-02-24T06:42:14.057Z,-3.06
2019-02-24T06:44:45.404Z,-3.06
2019-02-24T06:47:17.115Z,-3.04
2019-02-24T06:49:48.418Z,-3.07
2019-02-24T06:52:24.004Z,-3.03
2019-02-24T06:54:55.627Z,-3.04
2019-02-24T06:57:27.060Z,-3.01
2019-02-24T06:59:58.400Z,-2.99
2019-02-24T07:02:30.029Z,-2.92
2019-02-24T07:05:01.705Z,-2.89
2019-02-24T07:07:33.340Z,-2.86
2019-02-24T07:10:04.759Z,-2.80
2019-02-24T07:12:37.107Z,-2.76
2019-02-24T07:15:09.286Z,-2.72
2019-02-24T07:17:40.987Z,-2.64
2019-02-24T07:20:12.949Z,-2.52
2019-02-24T07:22:44.565Z,-2.40
2019-02-24T07:25:16.151Z,-2.30
2019-02-24T07:27:48.378Z,-2.32
2019-02-24T07:30:23.485Z,-2.04
2019-02-24T07:32:56.179Z,-1.95
2019-02-24T07:35:27.500Z,-1.89
2019-02-24T07:37:58.817Z,-1.92
2019-02-24T07:40:30.136Z,-1.54
2019-02-24T07:43:01.938Z,-1.42
2019-02-24T07:45:33.219Z,-1.36
2019-02-24T07:48:04.496Z,-0.75
2019-02-24T07:50:36.162Z,-0.18
2019-02-24T07:53:07.453Z,-0.28
2019-02-24T07:55:40.072Z,-0.27
2019-02-24T07:58:11.698Z,0.03
2019-02-24T08:00:43.068Z,0.16
2019-02-24T08:03:15.041Z,0.54
2019-02-24T08:05:49.407Z,0.60
2019-02-24T08:08:22.423Z,1.34
2019-02-24T08:10:54.623Z,1.77
2019-02-24T08:13:27.638Z,2.26
2019-02-24T08:15:59.251Z,2.31
2019-02-24T08:18:30.887Z,2.00
2019-02-24T08:21:05.608Z,2.11
2019-02-24T08:23:37.299Z,2.66
2019-02-24T08:26:08.553Z,3.02
2019-02-24T08:28:39.867Z,4.07
2019-02-24T08:31:11.197Z,4.59
2019-02-24T08:33:43.750Z,5.29
2019-02-24T08:36:15.297Z,5.85
2019-02-24T08:38:47.554Z,6.33
2019-02-24T08:41:19.008Z,7.01
2019-02-24T08:43:50.266Z,7.21
2019-02-24T08:46:21.901Z,7.05
2019-02-24T08:48:54.163Z,7.47
2019-02-24T08:51:25.839Z,7.86
2019-02-24T08:53:58.205Z,8.87
2019-02-24T08:56:29.876Z,9.20
2019-02-24T08:59:01.181Z,9.56
2019-02-24T09:01:32.506Z,10.08
2019-02-24T09:04:04.147Z,10.56
2019-02-24T09:06:35.723Z,11.08
2019-02-24T09:09:07.413Z,11.47
2019-02-24T09:11:39.096Z,11.75
2019-02-24T09:14:10.376Z,11.93
2019-02-24T09:16:42.585Z,12.27
2019-02-24T09:19:14.192Z,12.61
2019-02-24T09:21:45.801Z,12.90
2019-02-24T09:24:19.563Z,13.19
2019-02-24T09:26:50.824Z,13.69
2019-02-24T09:29:22.226Z,13.79
2019-02-24T09:31:53.831Z,14.01
2019-02-24T09:34:26.426Z,14.34
2019-02-24T09:36:57.688Z,14.43
2019-02-24T09:39:29.014Z,14.56
2019-02-24T09:42:00.280Z,14.84
2019-02-24T09:44:32.451Z,15.11
2019-02-24T09:47:03.863Z,13.40
2019-02-24T09:49:35.183Z,13.14
2019-02-24T09:52:06.751Z,12.97
2019-02-24T09:54:38.447Z,12.94
2019-02-24T09:57:10.044Z,14.41
2019-02-24T09:59:41.771Z,15.46
2019-02-24T10:02:13.121Z,15.43
2019-02-24T10:04:44.700Z,15.56
2019-02-24T10:07:15.995Z,16.07
2019-02-24T10:09:47.936Z,16.46
2019-02-24T10:12:19.206Z,16.29
2019-02-24T10:14:50.466Z,16.30
2019-02-24T10:17:22.358Z,16.95
2019-02-24T10:19:53.980Z,17.44
2019-02-24T10:22:25.638Z,17.29
2019-02-24T10:24:57.737Z,16.69
2019-02-24T10:27:29.384Z,17.85
2019-02-24T10:30:01.008Z,17.85
2019-02-24T10:32:33.000Z,17.40
2019-02-24T10:35:04.469Z,17.36
2019-02-24T10:37:36.672Z,17.20
2019-02-24T10:40:12.378Z,17.82
2019-02-24T10:42:43.814Z,16.80
2019-02-24T10:45:15.735Z,17.97
2019-02-24T10:47:47.751Z,18.31
2019-02-24T10:50:19.228Z,17.37
2019-02-24T10:52:51.478Z,16.79
2019-02-24T10:55:23.421Z,17.37
2019-02-24T10:57:57.507Z,17.99
2019-02-24T11:00:29.182Z,17.13
2019-02-24T11:03:00.494Z,18.30
2019-02-24T11:05:31.899Z,18.63
2019-02-24T11:08:03.570Z,18.77
2019-02-24T11:10:34.942Z,19.05
2019-02-24T11:13:06.306Z,19.67
2019-02-24T11:15:37.679Z,19.65
2019-02-24T11:18:09.370Z,19.06
2019-02-24T11:20:40.869Z,19.00
2019-02-24T11:23:15.257Z,19.17
2019-02-24T11:25:46.902Z,19.09
2019-02-24T11:28:18.192Z,19.14
2019-02-24T11:30:49.455Z,19.35
2019-02-24T11:33:20.781Z,19.42
2019-02-24T11:35:52.082Z,19.90
2019-02-24T11:38:23.542Z,20.10
2019-02-24T11:40:55.203Z,19.67
2019-02-24T11:43:26.891Z,20.26
2019-02-24T11:45:58.828Z,20.57
2019-02-24T11:48:31.299Z,19.77
2019-02-24T11:51:02.818Z,20.25
2019-02-24T11:53:34.797Z,20.57
2019-02-24T11:56:06.849Z,19.70
2019-02-24T11:58:38.237Z,20.75
2019-02-24T12:01:10.123Z,19.58
2019-02-24T12:03:41.825Z,20.82
2019-02-24T12:06:13.402Z,20.22
2019-02-24T12:08:45.285Z,18.87
2019-02-24T12:11:16.633Z,21.02
2019-02-24T12:13:48.310Z,22.36
2019-02-24T12:16:20.161Z,21.80
2019-02-24T12:18:51.842Z,22.78
2019-02-24T12:21:23.706Z,21.18
2019-02-24T12:23:55.334Z,19.00
2019-02-24T12:26:26.675Z,20.96
2019-02-24T12:28:57.939Z,19.66
2019-02-24T12:31:29.599Z,19.56
2019-02-24T12:34:00.992Z,19.61
2019-02-24T12:36:32.680Z,18.73
2019-02-24T12:39:05.856Z,19.70
2019-02-24T12:41:37.256Z,17.78
2019-02-24T12:44:10.500Z,18.48
2019-02-24T12:46:41.989Z,21.39
2019-02-24T12:49:13.977Z,20.34
2019-02-24T12:51:45.755Z,20.79
2019-02-24T12:54:17.322Z,20.90
2019-02-24T12:56:48.931Z,20.70
2019-02-24T12:59:20.203Z,19.81
2019-02-24T13:01:52.852Z,21.59
2019-02-24T13:04:24.372Z,22.22
2019-02-24T13:06:57.494Z,22.71
2019-02-24T13:09:28.876Z,23.22
2019-02-24T13:12:00.500Z,21.80
2019-02-24T13:14:32.236Z,22.26
2019-02-24T13:19:47.106Z,21.40
2019-02-24T13:22:22.207Z,20.29
2019-02-24T13:24:54.411Z,20.71
2019-02-24T13:27:25.807Z,20.36
2019-02-24T13:29:57.448Z,20.52
2019-02-24T13:32:29.101Z,20.29
2019-02-24T13:35:00.766Z,19.89
2019-02-24T13:37:32.428Z,18.12
2019-02-24T13:40:03.717Z,17.23
2019-02-24T13:42:35.018Z,17.78
2019-02-24T13:45:07.858Z,17.79
2019-02-24T13:47:39.438Z,17.37
2019-02-24T13:50:11.022Z,16.81
2019-02-24T13:52:43.569Z,16.81
2019-02-24T13:55:14.978Z,16.83
2019-02-24T13:57:46.341Z,16.93
2019-02-24T14:00:18.219Z,16.61
2019-02-24T14:02:49.824Z,16.31
2019-02-24T14:05:21.151Z,16.04
2019-02-24T14:07:52.466Z,16.02
2019-02-24T14:10:23.776Z,15.75
2019-02-24T14:12:55.111Z,15.69
2019-02-24T14:15:27.315Z,15.46
2019-02-24T14:17:58.591Z,15.28
2019-02-24T14:20:30.539Z,15.10
2019-02-24T14:23:01.827Z,14.59
2019-02-24T14:25:33.348Z,14.68
2019-02-24T14:28:04.873Z,14.42
2019-02-24T14:30:36.491Z,14.24
2019-02-24T14:33:08.153Z,14.24
2019-02-24T14:35:39.470Z,14.30
2019-02-24T14:38:10.803Z,14.09
2019-02-24T14:40:42.088Z,14.05
2019-02-24T14:43:13.500Z,13.99
2019-02-24T14:45:49.604Z,13.95
2019-02-24T14:48:18.076Z,13.83
2019-02-24T14:50:49.472Z,13.83
2019-02-24T14:53:20.733Z,13.82
2019-02-24T14:55:52.500Z,13.82
2019-02-24T14:58:24.201Z,13.85
2019-02-24T15:00:55.474Z,13.76
2019-02-24T15:03:26.903Z,13.74
2019-02-24T15:05:58.507Z,13.73
2019-02-24T15:08:29.817Z,13.69
2019-02-24T15:11:01.897Z,13.67
2019-02-24T15:13:33.190Z,13.73
2019-02-24T15:16:04.626Z,13.69
2019-02-24T15:18:37.174Z,13.64
2019-02-24T15:21:08.718Z,13.58
2019-02-24T15:23:40.287Z,13.55
2019-02-24T15:26:12.001Z,13.47
2019-02-24T15:28:43.461Z,13.43
2019-02-24T15:31:14.717Z,13.40
2019-02-24T15:33:46.912Z,13.37
2019-02-24T15:36:18.265Z,13.31
2019-02-24T15:38:49.934Z,13.23
2019-02-24T15:41:29.463Z,13.14
2019-02-24T15:43:54.903Z,13.16
2019-02-24T15:46:26.880Z,13.05
2019-02-24T15:48:58.905Z,13.01
2019-02-24T15:51:30.325Z,12.98
2019-02-24T15:54:01.916Z,12.92
2019-02-24T15:56:33.179Z,12.88
2019-02-24T15:59:04.972Z,12.82
2019-02-24T16:01:37.700Z,12.74
2019-02-24T16:04:08.960Z,12.75
2019-02-24T16:06:40.946Z,12.64
2019-02-24T16:09:12.509Z,12.56
2019-02-24T16:11:44.119Z,12.45
2019-02-24T16:14:15.451Z,12.35
2019-02-24T16:16:47.155Z,12.26
2019-02-24T16:19:19.888Z,12.21
2019-02-24T16:21:51.231Z,12.07
2019-02-24T16:24:22.846Z,11.96
2019-02-24T16:26:54.126Z,11.84
2019-02-24T16:29:25.743Z,11.78
2019-02-24T16:31:57.713Z,11.64
2019-02-24T16:34:28.971Z,11.62
2019-02-24T16:37:00.671Z,11.44
2019-02-24T16:39:32.266Z,11.24
2019-02-24T16:42:03.558Z,11.02
2019-02-24T16:44:35.188Z,10.80
2019-02-24T16:47:06.597Z,10.71
2019-02-24T16:49:38.637Z,10.68
2019-02-24T16:52:10.081Z,10.54
2019-02-24T16:54:42.906Z,10.52
2019-02-24T16:57:14.773Z,10.50
2019-02-24T16:59:46.721Z,10.32
2019-02-24T17:02:22.904Z,10.13
2019-02-24T17:04:51.399Z,10.11
2019-02-24T17:07:22.928Z,9.92
2019-02-24T17:09:54.171Z,9.78
2019-02-24T17:12:26.056Z,9.62
2019-02-24T17:14:58.120Z,9.52
2019-02-24T17:17:29.372Z,9.40
2019-02-24T17:20:02.476Z,9.37
2019-02-24T17:22:33.797Z,9.29
2019-02-24T17:25:05.915Z,9.16
2019-02-24T17:27:37.857Z,9.01
2019-02-24T17:30:10.559Z,8.73
2019-02-24T17:32:41.877Z,8.73
2019-02-24T17:35:13.779Z,8.38
2019-02-24T17:37:45.475Z,8.40
2019-02-24T17:40:16.714Z,8.23
2019-02-24T17:42:48.949Z,8.02
2019-02-24T17:45:20.215Z,8.06
2019-02-24T17:47:51.899Z,8.14
2019-02-24T17:50:23.187Z,8.18
2019-02-24T17:52:55.124Z,8.13
2019-02-24T17:55:26.348Z,8.00
2019-02-24T17:57:58.253Z,7.98
2019-02-24T18:00:31.836Z,7.87
2019-02-24T18:03:03.453Z,7.73
2019-02-24T18:05:34.760Z,7.65
2019-02-24T18:08:06.289Z,7.36
2019-02-24T18:10:37.531Z,7.13
2019-02-24T18:13:12.262Z,6.78
2019-02-24T18:15:43.863Z,6.92
2019-02-24T18:18:15.146Z,6.95
2019-02-24T18:20:47.076Z,6.96
2019-02-24T18:23:19.089Z,6.95
2019-02-24T18:25:50.402Z,6.85
2019-02-24T18:28:22.034Z,6.69
2019-02-24T18:30:53.856Z,6.67
2019-02-24T18:33:25.204Z,6.67
2019-02-24T18:35:56.468Z,6.60
2019-02-24T18:38:28.083Z,6.55
2019-02-24T18:40:59.344Z,6.49
2019-02-24T18:43:30.678Z,6.45
2019-02-24T18:46:01.986Z,6.13
2019-02-24T18:48:34.464Z,5.84
2019-02-24T18:51:06.151Z,5.89
2019-02-24T18:53:38.131Z,5.82
2019-02-24T18:56:09.679Z,5.83
2019-02-24T18:58:41.032Z,5.84
2019-02-24T19:01:12.640Z,5.83
2019-02-24T19:03:44.220Z,5.77
2019-02-24T19:06:15.508Z,5.57
2019-02-24T19:08:47.462Z,5.48
2019-02-24T19:11:19.429Z,5.54
2019-02-24T19:13:50.680Z,5.51
2019-02-24T19:16:22.412Z,5.46
2019-02-24T19:18:54.266Z,5.47
2019-02-24T19:21:25.893Z,5.40
2019-02-24T19:23:57.218Z,5.10
2019-02-24T19:26:28.843Z,5.14
2019-02-24T19:29:00.073Z,5.14
2019-02-24T19:31:31.691Z,5.06
2019-02-24T19:34:06.604Z,5.13
2019-02-24T19:36:36.901Z,5.05
2019-02-24T19:39:13.940Z,4.99
2019-02-24T19:41:45.219Z,4.95
2019-02-24T19:44:16.444Z,4.92
2019-02-24T19:46:48.417Z,4.87
2019-02-24T19:49:19.666Z,4.77
2019-02-24T19:51:50.944Z,4.73
2019-02-24T19:54:22.606Z,4.66
2019-02-24T19:56:53.865Z,4.60
2019-02-24T19:59:25.263Z,4.60
2019-02-24T20:01:56.564Z,4.53
2019-02-24T20:04:27.803Z,4.48
2019-02-24T20:06:59.126Z,4.45
2019-02-24T20:09:30.443Z,4.40
2019-02-24T20:12:02.126Z,4.30
2019-02-24T20:14:33.668Z,4.27
2019-02-24T20:17:05.744Z,4.32
2019-02-24T20:19:38.103Z,4.13
2019-02-24T20:22:09.692Z,4.07
2019-02-24T20:24:41.156Z,4.04
2019-02-24T20:27:12.448Z,4.06
2019-02-24T20:29:43.689Z,3.97
2019-02-24T20:32:14.944Z,3.94
2019-02-24T20:34:46.586Z,3.96
2019-02-24T20:37:17.857Z,3.83
2019-02-24T20:39:49.233Z,3.61
2019-02-24T20:42:20.567Z,3.53
2019-02-24T20:44:52.124Z,3.55
2019-02-24T20:47:23.922Z,3.58
2019-02-24T20:49:55.225Z,3.56
2019-02-24T20:52:26.755Z,3.56
2019-02-24T20:54:58.174Z,3.48
2019-02-24T20:57:29.800Z,3.51
2019-02-24T21:00:01.135Z,3.49
2019-02-24T21:02:32.453Z,3.51
2019-02-24T21:05:04.457Z,3.48
2019-02-24T21:07:35.805Z,3.49
2019-02-24T21:10:07.949Z,3.42
2019-02-24T21:12:39.560Z,3.44
2019-02-24T21:15:11.735Z,3.43
2019-02-24T21:17:43.138Z,3.36
2019-02-24T21:20:18.178Z,3.29
2019-02-24T21:22:50.844Z,3.23
2019-02-24T21:25:22.992Z,3.15
2019-02-24T21:27:54.786Z,2.95
2019-02-24T21:30:28.025Z,2.78
2019-02-24T21:32:59.666Z,2.84
2019-02-24T21:35:31.818Z,2.84
2019-02-24T21:38:05.752Z,2.85
2019-02-24T21:40:38.142Z,2.86
2019-02-24T21:43:09.710Z,2.83
2019-02-24T21:45:41.689Z,2.75
2019-02-24T21:48:13.105Z,2.78
2019-02-24T21:50:44.386Z,2.71
2019-02-24T21:53:16.011Z,2.70
2019-02-24T21:55:48.020Z,2.65
2019-02-24T21:58:19.281Z,2.62
2019-02-24T22:00:50.564Z,2.65
2019-02-24T22:03:21.886Z,2.59
2019-02-24T22:05:53.137Z,2.52
2019-02-24T22:08:24.417Z,2.57
2019-02-24T22:10:56.979Z,2.44
2019-02-24T22:13:28.502Z,2.29
2019-02-24T22:16:00.026Z,2.27
2019-02-24T22:18:33.343Z,2.25
2019-02-24T22:21:05.035Z,2.28
2019-02-24T22:23:36.596Z,2.19
2019-02-24T22:26:08.286Z,2.18
2019-02-24T22:28:39.946Z,2.18
2019-02-24T22:31:11.617Z,2.17
2019-02-24T22:33:43.362Z,2.15
2019-02-24T22:36:15.243Z,2.11
2019-02-24T22:38:46.623Z,2.06
2019-02-24T22:41:17.957Z,2.07
2019-02-24T22:43:49.528Z,2.03
2019-02-24T22:46:20.888Z,2.00
2019-02-24T22:48:53.042Z,2.00
2019-02-24T22:51:25.728Z,1.91
2019-02-24T22:53:57.226Z,1.86
2019-02-24T22:56:28.905Z,1.86
2019-02-24T22:59:00.832Z,1.91
2019-02-24T23:01:34.786Z,1.86
2019-02-24T23:04:13.682Z,1.88
2019-02-24T23:06:45.344Z,1.85
2019-02-24T23:09:20.657Z,1.76
2019-02-24T23:11:51.967Z,1.78
2019-02-24T23:14:23.819Z,1.72
2019-02-24T23:16:55.504Z,1.73
2019-02-24T23:19:27.578Z,1.77
2019-02-24T23:21:59.691Z,1.75
2019-02-24T23:24:31.257Z,1.76
2019-02-24T23:27:03.183Z,1.68
2019-02-24T23:29:34.403Z,1.69
2019-02-24T23:32:05.966Z,1.69
2019-02-24T23:34:37.505Z,1.68
2019-02-24T23:37:08.799Z,1.68
2019-02-24T23:39:40.382Z,1.61
2019-02-24T23:42:11.949Z,1.59
2019-02-24T23:44:43.331Z,1.61
2019-02-24T23:47:14.620Z,1.64
2019-02-24T23:49:46.526Z,1.62
2019-02-24T23:52:17.867Z,1.60
2019-02-24T23:54:49.545Z,1.57
2019-02-24T23:57:21.446Z,1.60
2019-02-24T23:59:53.016Z,1.55
